Latest Weather Observations for Wilsons Promontory

IDV60801

Issued at 7:02 am EST Tuesday 3 May 2016 (issued every 30 minutes, with the page automatically refreshed every 10 minutes)

About weather observations | Map of weather stations | Latest weather observations for VIC | Other Formats
Station Details ID: 085096 Name: WILSONS PROMONTORY LIGHTHOUSE Lat: -39.13 Lon: 146.42 Height: 95.0 m
Data from the previous 72 hours. | See also: Recent months at Wilsons Promontory
Date/Time
EST
Temp
°C
App
Temp
°C
Dew
Point
Rel
Hum
%
Delta-T
°C
Wind Press
QNH
hPa
Press
MSL
hPa
Rain
since 9 am
mm
Dir
 
Spd
km/h
Gust
km/h
Spd
kts
Gust
kts
03/07:00am 17.0 8.9 6.8 51 5.1 NNW 39 83 21 45 997.4 - 0.0
03/06:35am 17.1 9.0 6.9 51 5.1 NNW 39 91 21 49 997.5 - 0.0
03/06:33am 17.2 4.8 6.7 50 5.3 NNW 61 91 33 49 996.8 - 0.0
03/06:30am 16.9 8.8 7.0 52 5.0 NNW 39 83 21 45 997.7 - 0.0
03/06:00am 16.7 8.2 6.8 52 4.9 NNW 41 87 22 47 998.3 998.2 0.0
03/05:30am 16.5 8.8 6.9 53 4.8 NNW 37 72 20 39 998.4 - 0.0
03/05:02am 16.4 7.9 6.8 53 4.8 NNW 41 93 22 50 998.6 - 0.0
03/05:00am 16.3 8.1 6.7 53 4.7 NNW 39 74 21 40 999.1 - 0.0
03/04:30am 16.4 5.7 6.5 52 4.9 NNW 52 83 28 45 998.9 - 0.0
03/04:00am 16.5 6.5 6.1 50 5.1 NNW 48 95 26 51 999.8 - 0.0
03/03:30am 16.7 7.9 5.6 48 5.4 NNW 41 89 22 48 999.8 - 0.0
03/03:00am 16.8 8.7 5.1 46 5.6 NNW 37 83 20 45 1000.2 1000.2 0.0
03/02:30am 16.7 9.4 4.7 45 5.7 NNW 32 69 17 37 1001.0 - 0.0
03/02:00am 16.5 7.9 4.9 46 5.5 NNW 39 67 21 36 1001.1 - 0.0
03/01:30am 16.2 8.7 4.6 46 5.5 NNW 33 67 18 36 1001.8 - 0.0
03/01:00am 15.9 9.3 4.3 46 5.4 NNW 28 65 15 35 1002.5 - 0.0
03/12:30am 16.1 8.6 4.5 46 5.5 N 33 69 18 37 1002.7 - 0.0
03/12:00am 15.9 7.2 4.3 46 5.5 N 39 72 21 39 1003.1 1003.1 0.0
 
Date/Time
EST
Temp
°C
App
Temp
°C
Dew
Point
Rel
Hum
%
Delta-T
°C
Wind Press
QNH
hPa
Press
MSL
hPa
Rain
since 9 am
mm
Dir
 
Spd
km/h
Gust
km/h
Spd
kts
Gust
kts
02/11:30pm 15.8 8.3 4.2 46 5.4 NNW 33 70 18 38 1003.3 - 0.0
02/11:00pm 15.7 7.8 4.1 46 5.4 NNW 35 74 19 40 1004.2 - 0.0
02/10:46pm 15.7 7.4 4.1 46 5.4 N 37 87 20 47 1003.6 - 0.0
02/10:30pm 15.6 7.7 4.3 47 5.3 NNW 35 67 19 36 1004.5 - 0.0
02/10:00pm 15.4 7.5 4.5 48 5.1 NNW 35 59 19 32 1004.8 - 0.0
02/09:30pm 15.2 6.6 4.6 49 5.0 NNW 39 74 21 40 1005.1 - 0.0
02/09:00pm 15.1 7.2 4.5 49 5.0 N 35 70 19 38 1005.7 1005.6 0.0
02/08:30pm 14.8 8.3 4.5 50 4.8 N 28 63 15 34 1005.8 - 0.0
02/08:00pm 14.8 7.6 4.8 51 4.7 N 32 67 17 36 1006.2 - 0.0
02/07:38pm 14.8 7.3 4.5 50 4.8 N 33 89 18 48 1005.7 - 0.0
02/07:30pm 14.6 8.1 4.9 52 4.6 N 28 57 15 31 1006.2 - 0.0
02/07:00pm 14.7 7.5 5.2 53 4.5 N 32 65 17 35 1006.3 - 0.0
02/06:30pm 14.6 8.2 5.4 54 4.4 NNW 28 63 15 34 1006.7 - 0.0
02/06:00pm 14.8 8.4 5.1 52 4.6 N 28 50 15 27 1006.4 1006.3 0.0
02/05:30pm 15.0 7.8 5.2 52 4.6 NNW 32 61 17 33 1006.4 - 0.0
02/05:00pm 15.1 8.7 5.3 52 4.7 NNW 28 57 15 31 1006.5 - 0.0
02/04:55pm 15.1 8.7 5.3 52 4.7 NNW 28 70 15 38 1006.4 - 0.0
02/04:30pm 15.3 10.7 5.8 53 4.6 NW 19 52 10 28 1006.6 - 0.0
02/04:00pm 15.3 10.7 5.5 52 4.7 NNW 19 56 10 30 1006.9 - 0.0
02/03:30pm 15.7 10.4 5.0 49 5.1 NNW 22 43 12 23 1007.2 - 0.0
02/03:13pm 15.9 9.1 5.2 49 5.1 NW 30 54 16 29 1007.0 - 0.0
02/03:00pm 15.9 12.0 5.2 49 5.1 NW 15 50 8 27 1007.3 1007.3 0.0
02/02:30pm 15.8 10.9 5.1 49 5.1 NNW 20 39 11 21 1007.4 - 0.0
02/02:00pm 15.7 10.9 4.7 48 5.2 N 19 39 10 21 1007.3 - 0.0
02/01:30pm 15.5 9.8 5.1 50 4.9 NNW 24 48 13 26 1007.6 - 0.0
02/01:00pm 15.2 10.4 5.7 53 4.6 NNW 20 37 11 20 1008.1 - 0.0
02/12:30pm 15.0 12.0 6.0 55 4.3 NNW 11 30 6 16 1008.8 - 0.0
02/12:00pm 14.4 10.3 6.0 57 4.0 NW 17 44 9 24 1009.2 1009.2 0.0
02/11:30am 13.9 8.9 6.3 60 3.7 N 22 54 12 29 1009.8 - 0.0
02/11:28am 13.8 6.8 5.9 59 3.8 NW 32 54 17 29 1009.6 - 0.0
02/11:00am 14.0 12.0 6.4 60 3.7 NNW 6 50 3 27 1010.1 - 0.0
02/10:30am 12.7 7.9 5.8 63 3.3 NNW 20 43 11 23 1010.3 - 0.0
02/10:00am 12.8 9.0 5.9 63 3.3 NNW 15 32 8 17 1010.6 - 0.0
02/09:30am 12.1 7.3 5.7 65 3.0 NNW 20 54 11 29 1010.8 - 0.0
02/09:00am 11.9 6.8 5.8 66 2.9 NNW 22 48 12 26 1010.8 1010.8 28.4
02/08:30am 11.3 5.7 5.6 68 2.6 NNW 24 48 13 26 1010.8 - 28.4
02/08:00am 11.0 5.8 5.7 70 2.5 N 22 41 12 22 1010.9 - 28.4
02/07:30am 11.0 6.0 6.4 73 2.2 NNW 22 46 12 25 1010.7 - 28.4
02/07:00am 11.0 7.0 6.6 74 2.1 NNW 17 32 9 17 1010.5 - 28.4
02/06:30am 11.1 7.9 6.8 75 2.0 NNW 13 28 7 15 1010.5 - 28.4
02/06:00am 11.2 8.0 6.9 75 2.1 NNW 13 26 7 14 1010.3 1010.3 28.4
02/05:30am 11.9 9.3 7.6 75 2.1 N 11 39 6 21 1010.4 - 28.4
02/05:00am 12.8 5.8 7.0 68 2.8 W 33 54 18 29 1010.0 - 28.4
02/04:30am 12.6 4.9 7.3 70 2.6 W 37 85 20 46 1009.6 - 28.4
02/04:00am 12.7 4.4 7.8 72 2.4 W 41 63 22 34 1009.5 - 28.4
02/03:30am 12.7 5.3 8.2 74 2.2 W 37 67 20 36 1009.9 - 28.4
02/03:00am 12.6 3.9 7.9 73 2.3 W 43 69 23 37 1009.7 1009.7 28.4
02/02:30am 12.3 5.0 8.6 78 1.8 W 37 63 20 34 1010.0 - 28.4
02/02:00am 11.6 2.1 8.5 81 1.5 W 48 76 26 41 1009.9 - 28.4
02/01:30am 11.2 -0.4 8.2 82 1.5 W 59 93 32 50 1009.5 - 27.4
02/01:23am 12.3 2.9 8.6 78 1.8 W 48 93 26 50 1009.5 - 26.4
02/01:00am 12.1 4.5 8.9 81 1.6 W 39 59 21 32 1010.1 - 26.2
02/12:30am 12.1 2.6 8.2 77 1.9 W 48 80 26 43 1010.2 - 25.2
02/12:01am 12.0 1.8 8.5 79 1.7 W 52 95 28 51 1009.4 - 24.0
02/12:00am 12.9 3.5 8.8 76 2.1 W 48 72 26 39 1010.1 1010.1 23.2
 
Date/Time
EST
Temp
°C
App
Temp
°C
Dew
Point
Rel
Hum
%
Delta-T
°C
Wind Press
QNH
hPa
Press
MSL
hPa
Rain
since 9 am
mm
Dir
 
Spd
km/h
Gust
km/h
Spd
kts
Gust
kts
01/11:30pm 13.1 2.5 6.7 65 3.1 W 52 74 28 40 1010.2 - 22.6
01/11:00pm 13.1 2.9 7.1 67 2.9 W 50 72 27 39 1010.2 - 22.6
01/10:30pm 12.1 2.4 8.9 81 1.6 W 50 83 27 45 1010.6 - 22.6
01/10:22pm 11.9 -0.5 8.2 78 1.8 W 63 83 34 45 1009.9 - 22.6
01/10:21pm 11.9 -1.2 8.2 78 1.8 W 67 83 36 45 1009.7 - 22.6
01/10:02pm 13.1 4.4 8.6 74 2.3 W 44 63 24 34 1010.2 - 22.4
01/10:00pm 13.0 4.0 8.7 75 2.2 W 46 63 25 34 1010.2 - 22.4
01/09:30pm 12.6 3.8 8.1 74 2.2 W 44 69 24 37 1010.3 - 22.4
01/09:00pm 13.2 2.7 7.2 67 2.9 W 52 76 28 41 1009.7 1009.7 22.4
01/08:30pm 13.4 2.2 6.0 61 3.5 W 54 76 29 41 1008.9 - 22.4
01/08:00pm 13.2 2.7 7.2 67 2.9 W 52 83 28 45 1009.1 - 22.4
01/07:30pm 12.7 2.4 6.3 65 3.1 W 50 76 27 41 1008.8 - 22.4
01/07:00pm 13.3 2.3 6.9 65 3.1 W 54 78 29 42 1008.3 - 22.4
01/06:30pm 13.3 1.6 6.4 63 3.3 W 57 80 31 43 1008.0 - 22.4
01/06:21pm 13.1 0.2 7.5 69 2.7 W 65 83 35 45 1007.9 - 22.4
01/06:14pm 12.9 -1.0 7.6 70 2.6 W 70 82 38 44 1007.2 - 22.4
01/06:00pm 13.0 3.3 7.7 70 2.6 W 48 74 26 40 1007.6 1007.6 22.4
01/05:30pm 13.1 1.8 7.8 70 2.6 W 57 82 31 44 1006.8 - 22.4
01/05:00pm 13.2 2.1 6.3 63 3.3 W 54 82 29 44 1006.0 - 22.4
01/04:30pm 13.2 1.6 6.5 64 3.2 W 57 82 31 44 1005.5 - 22.0
01/04:00pm 13.0 2.6 7.9 71 2.5 W 52 78 28 42 1005.3 - 22.0
01/03:30pm 12.3 -0.2 7.8 74 2.2 W 63 98 34 53 1004.6 - 22.0
01/03:06pm 11.8 1.6 9.9 88 1.0 W 54 96 29 52 1003.7 - 22.0
01/03:00pm 12.2 3.0 9.6 84 1.3 W 48 76 26 41 1004.3 1004.3 17.6
01/02:55pm 12.6 5.0 9.1 79 1.8 W 39 76 21 41 1004.3 - 15.2
01/02:30pm 12.7 0.8 8.6 76 2.1 W 61 98 33 53 1003.5 - 15.2
01/02:14pm 11.4 -1.4 7.9 79 1.7 W 65 113 35 61 1003.4 - 15.2
01/02:06pm 11.3 -5.5 7.2 76 2.0 W 85 113 46 61 1002.6 - 15.0
01/02:05pm 11.9 1.5 7.8 76 2.0 W 52 113 28 61 1002.7 - 14.8
01/02:00pm 12.6 3.5 8.5 76 2.0 W 46 76 25 41 1002.9 - 14.6
01/01:30pm 11.9 2.9 8.7 81 1.6 W 46 72 25 39 1003.0 - 14.6
01/01:05pm 12.1 4.0 8.8 80 1.7 W 41 87 22 47 1003.1 - 14.6
01/01:00pm 12.0 -0.7 8.3 78 1.8 W 65 95 35 51 1002.8 - 14.6
01/12:49pm 12.0 -0.6 9.0 82 1.5 W 65 109 35 59 1002.5 - 14.4
01/12:46pm 11.5 -4.6 8.7 83 1.4 W 83 109 45 59 1001.7 - 14.4
01/12:30pm 11.4 -0.1 8.6 83 1.4 W 59 93 32 50 1002.9 - 13.0
01/12:21pm 12.0 -0.5 9.4 84 1.3 W 65 96 35 52 1002.1 - 12.6
01/12:00pm 13.0 4.4 10.2 83 1.5 W 46 78 25 42 1002.1 1002.1 9.6
01/11:58am 13.0 4.4 10.4 84 1.4 W 46 67 25 36 1002.0 - 9.6
01/11:34am 11.8 6.3 9.2 84 1.3 WNW 28 54 15 29 1003.0 - 9.6
01/11:30am 11.8 6.8 9.4 85 1.2 WNW 26 54 14 29 1002.8 - 9.6
01/11:16am 11.5 2.9 8.7 83 1.4 WNW 44 80 24 43 1002.1 - 9.4
01/11:14am 11.5 3.8 8.7 83 1.4 W 39 80 21 43 1002.6 - 9.2
01/11:00am 11.4 -0.7 9.3 87 1.1 W 63 93 34 50 1002.4 - 8.6
01/10:48am 12.1 -1.7 9.5 84 1.3 W 72 96 39 52 1001.3 - 4.4
01/10:30am 13.7 4.4 9.0 73 2.4 WNW 48 96 26 52 1000.6 - 3.0
01/10:19am 13.9 3.0 8.9 72 2.5 WNW 56 83 30 45 1001.3 - 2.8
01/10:00am 13.0 7.6 9.4 79 1.8 WNW 28 76 15 41 1002.0 - 2.8
01/09:54am 13.2 7.7 9.3 77 2.0 WNW 28 76 15 41 1001.8 - 2.8
01/09:30am 14.3 11.6 8.9 70 2.8 NNW 13 50 7 27 1001.9 - 0.4
01/09:00am 16.2 12.2 10.3 68 3.1 NNW 22 70 12 38 1001.1 1001.1 5.6
01/08:30am 16.5 10.9 10.1 66 3.4 NNW 30 59 16 32 1001.2 - 5.6
01/08:11am 16.4 11.2 10.3 67 3.2 NW 28 50 15 27 1001.1 - 5.6
01/08:00am 16.1 11.6 10.2 68 3.1 NNW 24 54 13 29 1001.2 - 5.6
01/07:30am 15.7 13.2 10.9 73 2.6 NNW 15 33 8 18 1001.3 - 5.6
01/07:00am 15.3 11.6 11.5 78 2.1 NNW 22 43 12 23 1001.4 - 5.6
01/06:30am 15.2 12.2 12.0 81 1.7 N 19 30 10 16 1001.0 - 5.6
01/06:00am 14.9 11.0 12.2 84 1.5 NNW 24 48 13 26 1001.9 1001.9 5.6
01/05:51am 14.9 10.3 12.2 84 1.5 NNW 28 48 15 26 1001.8 - 5.6
01/05:30am 14.7 11.8 12.9 89 1.0 WNW 20 43 11 23 1002.7 - 5.0
01/05:00am 16.6 10.6 12.2 75 2.4 W 35 69 19 37 1003.2 - 0.8
01/04:59am 16.9 10.4 11.8 72 2.8 WNW 37 69 20 37 1003.1 - 0.6
01/04:57am 17.8 13.2 12.3 70 3.1 NNW 28 44 15 24 1002.7 - 0.2
01/04:30am 18.0 13.9 11.3 65 3.7 NNE 24 33 13 18 1000.6 - 0.0
01/04:00am 18.1 13.9 11.2 64 3.8 NNE 24 32 13 17 1000.6 - 0.0
01/03:30am 18.5 12.8 11.1 62 4.0 NNE 32 44 17 24 1002.1 - 0.0
01/03:00am 16.5 13.1 13.8 84 1.5 NNE 24 32 13 17 1002.8 1002.8 0.0
01/02:30am 17.3 14.1 13.0 76 2.4 NNE 22 28 12 15 1003.5 - 0.0
01/02:00am 18.9 15.4 11.0 60 4.3 NNE 20 33 11 18 1004.3 - 0.0
01/01:30am 18.9 14.9 11.7 63 4.0 NNE 24 32 13 17 1005.1 - 0.0
01/01:00am 19.3 15.2 11.3 60 4.4 N 24 33 13 18 1005.9 - 0.0
01/12:30am 19.4 15.0 11.7 61 4.3 N 26 33 14 18 1006.5 - 0.0
01/12:00am 18.6 15.0 11.9 65 3.7 NNE 22 30 12 16 1007.1 1007.0 0.0
 
Date/Time
EST
Temp
°C
App
Temp
°C
Dew
Point
Rel
Hum
%
Delta-T
°C
Wind Press
QNH
hPa
Press
MSL
hPa
Rain
since 9 am
mm
Dir
 
Spd
km/h
Gust
km/h
Spd
kts
Gust
kts
30/11:30pm 18.7 15.9 12.5 67 3.5 NNE 19 24 10 13 1008.0 - 0.0
30/11:00pm 19.5 16.5 11.8 61 4.3 N 19 24 10 13 1008.6 - 0.0
30/10:30pm 20.0 17.3 11.7 59 4.6 N 17 24 9 13 1009.2 - 0.0
30/10:00pm 20.3 17.3 11.8 58 4.7 N 19 30 10 16 1009.8 - 0.0
30/09:30pm 18.7 17.3 13.3 71 3.1 N 13 19 7 10 1009.9 - 0.0
30/09:00pm 19.1 16.7 12.8 67 3.6 NNE 17 20 9 11 1009.9 1009.8 0.0
30/08:30pm 18.2 16.1 13.5 74 2.7 NNE 17 20 9 11 1010.2 - 0.0
30/08:00pm 18.1 16.1 14.0 77 2.4 NNE 17 20 9 11 1010.1 - 0.0
30/07:30pm 17.8 15.4 14.5 81 1.9 NNE 20 26 11 14 1010.2 - 0.0
30/07:00pm 18.0 15.9 14.7 81 1.9 NE 19 22 10 12 1010.3 - 0.0
30/06:30pm 20.8 17.9 12.2 58 4.8 N 19 26 10 14 1010.2 - 0.0
30/06:00pm 21.0 18.9 12.4 58 4.9 N 15 20 8 11 1010.1 1010.0 0.0
30/05:30pm 18.7 18.2 14.8 78 2.3 NNE 11 15 6 8 1010.2 - 0.0
30/05:00pm 19.2 18.6 14.7 75 2.6 NNE 11 15 6 8 1010.5 - 0.0
30/04:30pm 19.3 19.1 14.8 75 2.6 N 9 13 5 7 1010.7 - 0.0
30/04:00pm 20.4 20.1 14.5 69 3.5 N 9 20 5 11 1010.8 - 0.0
30/03:30pm 20.3 20.8 15.1 72 3.1 N 6 11 3 6 1010.9 - 0.0
30/03:00pm 19.9 19.1 15.1 74 2.8 N 13 20 7 11 1010.9 1010.8 0.0
30/02:30pm 18.6 17.5 15.3 81 1.9 NNE 15 19 8 10 1011.1 - 0.0
30/02:00pm 19.4 18.7 15.5 78 2.3 N 13 17 7 9 1011.2 - 0.0
30/01:30pm 19.9 18.7 15.1 74 2.8 N 15 19 8 10 1011.4 - 0.0
30/01:00pm 20.8 20.3 14.9 69 3.5 N 11 26 6 14 1011.7 - 0.0
30/12:30pm 21.8 21.1 14.4 63 4.4 N 11 22 6 12 1012.2 - 0.0
30/12:00pm 19.7 17.6 14.7 73 2.9 NNE 19 22 10 12 1012.6 1012.5 0.0
30/11:30am 20.3 18.6 14.7 70 3.3 NNE 17 24 9 13 1012.9 - 0.0
30/11:00am 20.6 18.9 14.7 69 3.5 NNE 17 24 9 13 1013.3 - 0.0
30/10:30am 20.1 18.0 14.7 71 3.2 N 19 26 10 14 1013.4 - 0.0
30/10:00am 19.8 17.5 14.6 72 3.0 N 20 30 11 16 1013.6 - 0.0
30/09:30am 19.8 17.5 14.6 72 3.0 NNE 20 28 11 15 1014.0 - 0.0
30/09:00am 19.6 17.9 14.6 73 2.9 NNE 17 24 9 13 1014.1 1014.0 12.0
30/08:30am 19.8 17.3 13.5 67 3.6 N 19 28 10 15 1014.2 - 12.0
30/08:00am 19.3 16.9 13.7 70 3.2 N 19 35 10 19 1014.1 - 12.0
30/07:30am 18.6 17.0 13.9 74 2.7 N 15 24 8 13 1014.0 - 12.0

Other Formats:

Comma delimited format used in spreadsheet applications
http://www.bom.gov.au/fwo/IDV60801/IDV60801.94893.axf

JavaScript Object Notation format (JSON) in row-major order
http://www.bom.gov.au/fwo/IDV60801/IDV60801.94893.json